sensor_id;sensor_type;location;lat;lon;timestamp;pressure;altitude;pressure_sealevel;temperature;humidity
41688;BME280;27371;42.686;23.362;2023-03-25T00:00:07;164702.72;;;9.61;65.22
41688;BME280;27371;42.686;23.362;2023-03-25T00:02:41;164609.25;;;9.25;66.89
41688;BME280;27371;42.686;23.362;2023-03-25T00:05:09;164553.16;;;9.04;68.21
41688;BME280;27371;42.686;23.362;2023-03-25T00:07:35;164570.56;;;9.10;68.91
41688;BME280;27371;42.686;23.362;2023-03-25T00:10:01;164542.50;;;9.00;69.27
41688;BME280;27371;42.686;23.362;2023-03-25T00:12:27;164562.56;;;9.07;70.19
41688;BME280;27371;42.686;23.362;2023-03-25T00:14:52;164585.25;;;9.16;69.63
41688;BME280;27371;42.686;23.362;2023-03-25T00:17:24;164590.59;;;9.18;69.29
41688;BME280;27371;42.686;23.362;2023-03-25T00:19:57;164615.94;;;9.28;68.61
41688;BME280;27371;42.686;23.362;2023-03-25T00:22:25;164643.97;;;9.39;68.19
41688;BME280;27371;42.686;23.362;2023-03-25T00:24:51;164649.34;;;9.41;67.98
41688;BME280;27371;42.686;23.362;2023-03-25T00:27:17;164639.94;;;9.37;68.05
41688;BME280;27371;42.686;23.362;2023-03-25T00:29:43;164669.38;;;9.48;67.71
41688;BME280;27371;42.686;23.362;2023-03-25T00:32:10;164680.03;;;9.52;67.60
41688;BME280;27371;42.686;23.362;2023-03-25T00:34:36;164681.38;;;9.53;67.79
41688;BME280;27371;42.686;23.362;2023-03-25T00:37:07;164661.31;;;9.45;67.58
41688;BME280;27371;42.686;23.362;2023-03-25T00:39:33;164673.34;;;9.50;68.05
41688;BME280;27371;42.686;23.362;2023-03-25T00:41:59;164673.34;;;9.50;68.15
41688;BME280;27371;42.686;23.362;2023-03-25T00:44:27;164658.66;;;9.44;68.03
41688;BME280;27371;42.686;23.362;2023-03-25T00:46:53;164666.69;;;9.47;68.14
41688;BME280;27371;42.686;23.362;2023-03-25T00:49:18;164670.72;;;9.49;68.04
41688;BME280;27371;42.686;23.362;2023-03-25T00:51:52;164666.69;;;9.47;68.15
41688;BME280;27371;42.686;23.362;2023-03-25T00:54:17;164601.25;;;9.22;67.06
41688;BME280;27371;42.686;23.362;2023-03-25T00:56:46;164462.41;;;8.69;68.59
41688;BME280;27371;42.686;23.362;2023-03-25T00:59:12;164435.72;;;8.59;70.26
41688;BME280;27371;42.686;23.362;2023-03-25T01:01:38;164386.31;;;8.40;71.58
41688;BME280;27371;42.686;23.362;2023-03-25T01:04:04;164376.94;;;8.36;73.15
41688;BME280;27371;42.686;23.362;2023-03-25T01:06:37;164359.56;;;8.30;74.07
41688;BME280;27371;42.686;23.362;2023-03-25T01:09:05;164343.56;;;8.23;74.71
41688;BME280;27371;42.686;23.362;2023-03-25T01:11:32;164385.00;;;8.39;75.05
41688;BME280;27371;42.686;23.362;2023-03-25T01:13:59;164409.00;;;8.48;74.48
41688;BME280;27371;42.686;23.362;2023-03-25T01:16:25;164431.69;;;8.57;74.08
41688;BME280;27371;42.686;23.362;2023-03-25T01:18:51;164451.72;;;8.65;73.50
41688;BME280;27371;42.686;23.362;2023-03-25T01:21:18;164451.72;;;8.65;72.80
41688;BME280;27371;42.686;23.362;2023-03-25T01:23:43;164449.06;;;8.64;73.03
41688;BME280;27371;42.686;23.362;2023-03-25T01:26:09;164423.69;;;8.54;72.82
41688;BME280;27371;42.686;23.362;2023-03-25T01:28:34;164461.09;;;8.68;72.43
41688;BME280;27371;42.686;23.362;2023-03-25T01:31:04;164467.72;;;8.71;72.03
41688;BME280;27371;42.686;23.362;2023-03-25T01:33:29;164463.75;;;8.69;72.38
41688;BME280;27371;42.686;23.362;2023-03-25T01:35:57;164463.75;;;8.69;72.44
41688;BME280;27371;42.686;23.362;2023-03-25T01:38:22;164477.09;;;8.75;71.79
41688;BME280;27371;42.686;23.362;2023-03-25T01:40:49;164445.03;;;8.62;71.69
41688;BME280;27371;42.686;23.362;2023-03-25T01:43:16;164485.09;;;8.78;71.54
41688;BME280;27371;42.686;23.362;2023-03-25T01:45:42;164479.75;;;8.76;71.43
41688;BME280;27371;42.686;23.362;2023-03-25T01:48:27;164486.44;;;8.78;71.05
41688;BME280;27371;42.686;23.362;2023-03-25T01:51:18;164455.75;;;8.66;69.33
41688;BME280;27371;42.686;23.362;2023-03-25T01:53:44;164295.56;;;8.05;68.88
41688;BME280;27371;42.686;23.362;2023-03-25T01:56:13;164195.50;;;7.67;71.37
41688;BME280;27371;42.686;23.362;2023-03-25T01:58:41;164124.81;;;7.40;72.66
41688;BME280;27371;42.686;23.362;2023-03-25T02:01:08;164096.78;;;7.29;74.59
41688;BME280;27371;42.686;23.362;2023-03-25T02:03:39;164078.09;;;7.22;75.43
41688;BME280;27371;42.686;23.362;2023-03-25T02:06:31;164094.16;;;7.28;76.81
41688;BME280;27371;42.686;23.362;2023-03-25T02:08:59;164111.47;;;7.34;76.62
41688;BME280;27371;42.686;23.362;2023-03-25T02:11:27;164131.47;;;7.42;76.13
41688;BME280;27371;42.686;23.362;2023-03-25T02:13:56;164140.81;;;7.46;75.29
41688;BME280;27371;42.686;23.362;2023-03-25T02:21:58;164202.19;;;7.69;73.67
41688;BME280;27371;42.686;23.362;2023-03-25T02:42:14;164312.91;;;8.12;71.72
41688;BME280;27371;42.686;23.362;2023-03-25T02:47:45;164287.50;;;8.02;70.46
41688;BME280;27371;42.686;23.362;2023-03-25T02:50:24;164190.16;;;7.65;70.99
41688;BME280;27371;42.686;23.362;2023-03-25T02:52:59;164159.50;;;7.53;73.12
41688;BME280;27371;42.686;23.362;2023-03-25T02:55:27;164143.44;;;7.47;74.17
41688;BME280;27371;42.686;23.362;2023-03-25T02:57:55;164115.50;;;7.36;74.95
41688;BME280;27371;42.686;23.362;2023-03-25T03:00:23;164146.16;;;7.48;75.43
41688;BME280;27371;42.686;23.362;2023-03-25T03:02:56;164146.16;;;7.48;75.80
41688;BME280;27371;42.686;23.362;2023-03-25T03:05:34;164150.13;;;7.49;76.09
41688;BME280;27371;42.686;23.362;2023-03-25T03:08:09;164178.13;;;7.60;75.75
41688;BME280;27371;42.686;23.362;2023-03-25T03:13:42;164210.19;;;7.72;75.28
41688;BME280;27371;42.686;23.362;2023-03-25T03:16:24;164234.16;;;7.81;75.09
41688;BME280;27371;42.686;23.362;2023-03-25T03:21:43;164251.50;;;7.88;74.57
41688;BME280;27371;42.686;23.362;2023-03-25T03:24:18;164254.19;;;7.89;74.40
41688;BME280;27371;42.686;23.362;2023-03-25T03:27:07;164271.53;;;7.96;74.24
41688;BME280;27371;42.686;23.362;2023-03-25T03:29:45;164242.16;;;7.85;74.40
41688;BME280;27371;42.686;23.362;2023-03-25T03:32:31;164240.84;;;7.84;74.20
41688;BME280;27371;42.686;23.362;2023-03-25T03:35:05;164232.84;;;7.81;74.26
41688;BME280;27371;42.686;23.362;2023-03-25T03:37:40;164234.16;;;7.81;74.26
41688;BME280;27371;42.686;23.362;2023-03-25T03:40:12;164222.16;;;7.77;74.05
41688;BME280;27371;42.686;23.362;2023-03-25T03:42:44;164239.53;;;7.84;73.97
41688;BME280;27371;42.686;23.362;2023-03-25T03:45:19;164196.84;;;7.67;72.36
41688;BME280;27371;42.686;23.362;2023-03-25T03:47:50;164106.13;;;7.32;72.76
41688;BME280;27371;42.686;23.362;2023-03-25T03:50:34;164054.13;;;7.12;74.67
41688;BME280;27371;42.686;23.362;2023-03-25T03:55:49;164027.44;;;7.02;77.61
41688;BME280;27371;42.686;23.362;2023-03-25T03:58:29;164043.44;;;7.08;78.09
41688;BME280;27371;42.686;23.362;2023-03-25T04:01:05;164008.81;;;6.95;78.88
41688;BME280;27371;42.686;23.362;2023-03-25T04:03:40;164075.47;;;7.21;78.96
41688;BME280;27371;42.686;23.362;2023-03-25T04:06:24;164076.78;;;7.21;78.27
41688;BME280;27371;42.686;23.362;2023-03-25T04:08:58;164080.81;;;7.23;77.97
41688;BME280;27371;42.686;23.362;2023-03-25T04:11:32;164123.47;;;7.39;77.93
41688;BME280;27371;42.686;23.362;2023-03-25T04:14:01;164102.16;;;7.31;77.59
41688;BME280;27371;42.686;23.362;2023-03-25T04:16:29;164139.47;;;7.45;77.38
41688;BME280;27371;42.686;23.362;2023-03-25T04:18:56;164146.16;;;7.48;77.16
41688;BME280;27371;42.686;23.362;2023-03-25T04:21:23;164158.13;;;7.52;77.03
41688;BME280;27371;42.686;23.362;2023-03-25T04:23:49;164155.47;;;7.51;77.10
41688;BME280;27371;42.686;23.362;2023-03-25T04:26:16;164167.50;;;7.56;76.91
41688;BME280;27371;42.686;23.362;2023-03-25T04:28:41;164186.13;;;7.63;76.63
41688;BME280;27371;42.686;23.362;2023-03-25T04:31:15;164198.16;;;7.68;76.38
41688;BME280;27371;42.686;23.362;2023-03-25T04:33:43;164204.84;;;7.70;76.44
41688;BME280;27371;42.686;23.362;2023-03-25T04:36:13;164198.16;;;7.68;76.23
41688;BME280;27371;42.686;23.362;2023-03-25T04:38:40;164240.84;;;7.84;76.24
41688;BME280;27371;42.686;23.362;2023-03-25T04:41:06;164196.84;;;7.67;74.72
41688;BME280;27371;42.686;23.362;2023-03-25T04:43:34;164134.13;;;7.43;74.91
41688;BME280;27371;42.686;23.362;2023-03-25T04:46:00;164074.13;;;7.20;76.25
41688;BME280;27371;42.686;23.362;2023-03-25T04:48:28;164090.13;;;7.26;77.63
41688;BME280;27371;42.686;23.362;2023-03-25T04:50:55;164108.81;;;7.33;78.38
41688;BME280;27371;42.686;23.362;2023-03-25T04:53:22;164120.78;;;7.38;78.97
41688;BME280;27371;42.686;23.362;2023-03-25T04:55:48;164140.81;;;7.46;79.04
41688;BME280;27371;42.686;23.362;2023-03-25T04:58:14;164160.81;;;7.53;79.26
41688;BME280;27371;42.686;23.362;2023-03-25T05:00:41;164186.13;;;7.63;79.26
41688;BME280;27371;42.686;23.362;2023-03-25T05:03:08;164267.53;;;7.94;78.74
41688;BME280;27371;42.686;23.362;2023-03-25T05:05:34;164362.28;;;8.31;77.19
41688;BME280;27371;42.686;23.362;2023-03-25T05:07:59;164474.41;;;8.74;75.34
41688;BME280;27371;42.686;23.362;2023-03-25T05:10:26;164574.53;;;9.12;73.11
41688;BME280;27371;42.686;23.362;2023-03-25T05:12:59;164635.97;;;9.35;71.66
41688;BME280;27371;42.686;23.362;2023-03-25T05:15:24;164721.44;;;9.68;69.78
41688;BME280;27371;42.686;23.362;2023-03-25T05:17:51;164863.00;;;10.22;68.67
41688;BME280;27371;42.686;23.362;2023-03-25T05:20:16;165035.47;;;10.88;66.55
41688;BME280;27371;42.686;23.362;2023-03-25T05:22:42;165087.63;;;11.08;64.95
41688;BME280;27371;42.686;23.362;2023-03-25T05:25:10;165230.63;;;11.63;62.97
41688;BME280;27371;42.686;23.362;2023-03-25T05:27:36;165349.72;;;12.09;61.24
41688;BME280;27371;42.686;23.362;2023-03-25T05:30:04;165416.59;;;12.34;59.91
41688;BME280;27371;42.686;23.362;2023-03-25T05:32:30;165416.59;;;12.34;59.16
41688;BME280;27371;42.686;23.362;2023-03-25T05:34:58;165415.28;;;12.34;58.14
41688;BME280;27371;42.686;23.362;2023-03-25T05:37:24;165372.47;;;12.17;58.69
41688;BME280;27371;42.686;23.362;2023-03-25T05:39:50;165320.31;;;11.97;59.62
41688;BME280;27371;42.686;23.362;2023-03-25T05:42:17;165312.28;;;11.94;59.92
41688;BME280;27371;42.686;23.362;2023-03-25T05:44:42;165304.28;;;11.91;59.60
41688;BME280;27371;42.686;23.362;2023-03-25T05:47:16;165292.22;;;11.87;59.70
41688;BME280;27371;42.686;23.362;2023-03-25T05:49:45;165304.28;;;11.91;59.58
41688;BME280;27371;42.686;23.362;2023-03-25T05:52:10;165360.41;;;12.13;59.54
41688;BME280;27371;42.686;23.362;2023-03-25T05:54:36;165407.25;;;12.31;58.13
41688;BME280;27371;42.686;23.362;2023-03-25T05:57:07;165463.44;;;12.52;57.90
41688;BME280;27371;42.686;23.362;2023-03-25T05:59:33;165508.91;;;12.69;57.28
41688;BME280;27371;42.686;23.362;2023-03-25T06:01:58;165570.50;;;12.93;56.04
41688;BME280;27371;42.686;23.362;2023-03-25T06:04:24;165590.53;;;13.01;55.40
41688;BME280;27371;42.686;23.362;2023-03-25T06:06:50;165603.91;;;13.06;55.86
41688;BME280;27371;42.686;23.362;2023-03-25T06:09:15;165666.88;;;13.30;55.35
41688;BME280;27371;42.686;23.362;2023-03-25T06:11:42;165757.94;;;13.65;54.41
41688;BME280;27371;42.686;23.362;2023-03-25T06:14:08;165777.97;;;13.72;53.68
41688;BME280;27371;42.686;23.362;2023-03-25T06:16:34;165751.25;;;13.62;53.80
41688;BME280;27371;42.686;23.362;2023-03-25T06:19:00;165719.06;;;13.50;53.55
41688;BME280;27371;42.686;23.362;2023-03-25T06:21:30;165709.72;;;13.46;54.08
41688;BME280;27371;42.686;23.362;2023-03-25T06:23:59;165712.38;;;13.47;54.60
41688;BME280;27371;42.686;23.362;2023-03-25T06:26:28;165752.56;;;13.63;53.87
41688;BME280;27371;42.686;23.362;2023-03-25T06:28:54;165727.09;;;13.53;53.62
41688;BME280;27371;42.686;23.362;2023-03-25T06:31:23;165701.69;;;13.43;54.23
41688;BME280;27371;42.686;23.362;2023-03-25T06:33:51;165587.88;;;13.00;54.40
41688;BME280;27371;42.686;23.362;2023-03-25T06:36:18;165700.38;;;13.43;54.33
41688;BME280;27371;42.686;23.362;2023-03-25T06:38:45;165713.72;;;13.48;53.99
41688;BME280;27371;42.686;23.362;2023-03-25T06:41:11;165717.75;;;13.49;54.12
41688;BME280;27371;42.686;23.362;2023-03-25T06:43:38;165729.81;;;13.54;53.59
41688;BME280;27371;42.686;23.362;2023-03-25T06:46:04;165684.28;;;13.36;53.58
41688;BME280;27371;42.686;23.362;2023-03-25T06:48:30;165682.94;;;13.36;54.37
41688;BME280;27371;42.686;23.362;2023-03-25T06:50:56;165690.97;;;13.39;54.68
41688;BME280;27371;42.686;23.362;2023-03-25T06:53:21;165648.06;;;13.23;54.52
41688;BME280;27371;42.686;23.362;2023-03-25T06:55:47;165533.00;;;12.79;55.28
41688;BME280;27371;42.686;23.362;2023-03-25T06:58:12;165467.44;;;12.54;56.77
41688;BME280;27371;42.686;23.362;2023-03-25T07:00:38;165397.91;;;12.27;57.82
41688;BME280;27371;42.686;23.362;2023-03-25T07:03:06;165420.63;;;12.36;58.16
41688;BME280;27371;42.686;23.362;2023-03-25T07:05:34;165436.69;;;12.42;58.10
41688;BME280;27371;42.686;23.362;2023-03-25T07:07:59;165492.88;;;12.63;57.72
41688;BME280;27371;42.686;23.362;2023-03-25T07:10:25;165527.66;;;12.77;57.32
41688;BME280;27371;42.686;23.362;2023-03-25T07:12:51;165579.84;;;12.97;57.27
41688;BME280;27371;42.686;23.362;2023-03-25T07:15:16;165661.53;;;13.28;56.35
41688;BME280;27371;42.686;23.362;2023-03-25T07:17:42;165717.75;;;13.49;55.77
41688;BME280;27371;42.686;23.362;2023-03-25T07:20:08;165740.50;;;13.58;55.43
41688;BME280;27371;42.686;23.362;2023-03-25T07:22:34;165723.13;;;13.51;54.93
41688;BME280;27371;42.686;23.362;2023-03-25T07:24:59;165743.16;;;13.59;55.16
41688;BME280;27371;42.686;23.362;2023-03-25T07:27:25;165788.72;;;13.76;54.96
41688;BME280;27371;42.686;23.362;2023-03-25T07:29:50;165832.88;;;13.93;54.26
41688;BME280;27371;42.686;23.362;2023-03-25T07:32:16;165898.50;;;14.18;53.29
41688;BME280;27371;42.686;23.362;2023-03-25T07:34:42;165858.31;;;14.03;53.42
41688;BME280;27371;42.686;23.362;2023-03-25T07:37:08;165890.47;;;14.15;53.52
41688;BME280;27371;42.686;23.362;2023-03-25T07:39:34;165941.34;;;14.35;53.08
41688;BME280;27371;42.686;23.362;2023-03-25T07:42:00;165990.97;;;14.54;52.93
41688;BME280;27371;42.686;23.362;2023-03-25T07:44:25;166045.84;;;14.75;52.27
41688;BME280;27371;42.686;23.362;2023-03-25T07:46:51;166096.75;;;14.94;51.57
41688;BME280;27371;42.686;23.362;2023-03-25T07:49:17;166146.34;;;15.13;51.27
41688;BME280;27371;42.686;23.362;2023-03-25T07:51:43;166145.00;;;15.12;50.91
41688;BME280;27371;42.686;23.362;2023-03-25T07:54:08;166173.16;;;15.23;50.50
41688;BME280;27371;42.686;23.362;2023-03-25T07:56:34;166161.06;;;15.19;50.59
41688;BME280;27371;42.686;23.362;2023-03-25T07:59:00;166163.78;;;15.20;50.37
41688;BME280;27371;42.686;23.362;2023-03-25T08:01:26;166206.66;;;15.36;50.07
41688;BME280;27371;42.686;23.362;2023-03-25T08:03:52;166157.09;;;15.17;50.22
41688;BME280;27371;42.686;23.362;2023-03-25T08:06:18;166195.91;;;15.32;50.43
41688;BME280;27371;42.686;23.362;2023-03-25T08:08:43;166287.06;;;15.67;49.54
41688;BME280;27371;42.686;23.362;2023-03-25T08:11:09;166295.16;;;15.70;48.99
41688;BME280;27371;42.686;23.362;2023-03-25T08:13:35;166376.91;;;16.01;48.59
41688;BME280;27371;42.686;23.362;2023-03-25T08:16:01;166390.31;;;16.06;47.81
41688;BME280;27371;42.686;23.362;2023-03-25T08:18:26;166442.59;;;16.26;47.70
41688;BME280;27371;42.686;23.362;2023-03-25T08:20:52;166523.03;;;16.57;47.18
41688;BME280;27371;42.686;23.362;2023-03-25T08:23:19;166560.63;;;16.71;46.70
41688;BME280;27371;42.686;23.362;2023-03-25T08:25:47;166516.38;;;16.54;47.19
41688;BME280;27371;42.686;23.362;2023-03-25T08:28:14;166560.63;;;16.71;46.46
41688;BME280;27371;42.686;23.362;2023-03-25T08:30:42;166606.25;;;16.88;45.95
41688;BME280;27371;42.686;23.362;2023-03-25T08:33:09;166635.75;;;17.00;45.61
41688;BME280;27371;42.686;23.362;2023-03-25T08:35:36;166633.09;;;16.99;46.12
41688;BME280;27371;42.686;23.362;2023-03-25T08:38:03;166604.91;;;16.88;46.42
41688;BME280;27371;42.686;23.362;2023-03-25T08:40:33;166680.00;;;17.17;46.15
41688;BME280;27371;42.686;23.362;2023-03-25T08:42:59;166702.81;;;17.25;45.70
41688;BME280;27371;42.686;23.362;2023-03-25T08:45:25;166726.97;;;17.34;45.17
41688;BME280;27371;42.686;23.362;2023-03-25T08:47:50;166732.31;;;17.36;45.05
41688;BME280;27371;42.686;23.362;2023-03-25T08:50:16;166761.88;;;17.48;44.70
41688;BME280;27371;42.686;23.362;2023-03-25T08:52:41;166812.84;;;17.67;44.11
41688;BME280;27371;42.686;23.362;2023-03-25T08:55:08;166873.25;;;17.90;43.83
41688;BME280;27371;42.686;23.362;2023-03-25T08:57:34;166878.63;;;17.92;44.01
41688;BME280;27371;42.686;23.362;2023-03-25T09:00:01;166858.50;;;17.85;44.95
41688;BME280;27371;42.686;23.362;2023-03-25T09:02:26;166842.41;;;17.78;44.11
41688;BME280;27371;42.686;23.362;2023-03-25T09:04:52;166827.59;;;17.73;44.31
41688;BME280;27371;42.686;23.362;2023-03-25T09:07:18;166840.97;;;17.78;44.43
41688;BME280;27371;42.686;23.362;2023-03-25T09:09:45;166799.44;;;17.62;44.50
41688;BME280;27371;42.686;23.362;2023-03-25T09:12:11;166764.53;;;17.49;44.67
41688;BME280;27371;42.686;23.362;2023-03-25T09:14:36;166799.44;;;17.62;44.56
41688;BME280;27371;42.686;23.362;2023-03-25T09:17:02;166904.13;;;18.02;43.91
41688;BME280;27371;42.686;23.362;2023-03-25T09:19:30;166967.19;;;18.26;43.23
41688;BME280;27371;42.686;23.362;2023-03-25T09:21:55;166992.69;;;18.36;42.51
41688;BME280;27371;42.686;23.362;2023-03-25T09:24:21;167042.34;;;18.55;41.52
41688;BME280;27371;42.686;23.362;2023-03-25T09:26:47;167106.84;;;18.79;41.33
41688;BME280;27371;42.686;23.362;2023-03-25T09:29:12;167182.06;;;19.08;40.81
41688;BME280;27371;42.686;23.362;2023-03-25T09:31:38;167249.19;;;19.33;40.68
41688;BME280;27371;42.686;23.362;2023-03-25T09:34:03;167229.03;;;19.26;39.83
41688;BME280;27371;42.686;23.362;2023-03-25T09:36:30;167220.97;;;19.23;40.25
41688;BME280;27371;42.686;23.362;2023-03-25T09:38:56;167218.31;;;19.22;39.81
41688;BME280;27371;42.686;23.362;2023-03-25T09:41:29;167109.56;;;18.80;40.94
41688;BME280;27371;42.686;23.362;2023-03-25T09:46:30;166859.84;;;17.85;43.86
41688;BME280;27371;42.686;23.362;2023-03-25T09:48:56;166977.91;;;18.30;43.34
41688;BME280;27371;42.686;23.362;2023-03-25T09:51:27;167020.88;;;18.46;42.14
41688;BME280;27371;42.686;23.362;2023-03-25T09:54:21;167114.88;;;18.82;41.58
41688;BME280;27371;42.686;23.362;2023-03-25T09:56:47;167172.63;;;19.04;41.02
41688;BME280;27371;42.686;23.362;2023-03-25T09:59:18;167226.34;;;19.25;40.39
41688;BME280;27371;42.686;23.362;2023-03-25T10:04:47;167327.06;;;19.63;39.61
41688;BME280;27371;42.686;23.362;2023-03-25T10:13:02;167410.38;;;19.95;38.40
41688;BME280;27371;42.686;23.362;2023-03-25T10:15:34;167442.66;;;20.07;38.05
41688;BME280;27371;42.686;23.362;2023-03-25T10:23:57;167540.69;;;20.44;33.80
41688;BME280;27371;42.686;23.362;2023-03-25T10:26:32;167540.69;;;20.44;32.61
41688;BME280;27371;42.686;23.362;2023-03-25T10:29:05;167590.47;;;20.63;33.28
41688;BME280;27371;42.686;23.362;2023-03-25T10:31:39;167630.81;;;20.79;32.50
41688;BME280;27371;42.686;23.362;2023-03-25T10:34:13;167657.63;;;20.89;31.97
41688;BME280;27371;42.686;23.362;2023-03-25T10:36:54;167688.59;;;21.01;31.30
41688;BME280;27371;42.686;23.362;2023-03-25T10:39:23;167718.16;;;21.12;31.65
41688;BME280;27371;42.686;23.362;2023-03-25T10:42:25;167726.22;;;21.15;32.33
41688;BME280;27371;42.686;23.362;2023-03-25T10:44:51;167730.22;;;21.17;31.44
41688;BME280;27371;42.686;23.362;2023-03-25T10:47:21;167699.31;;;21.05;31.66
41688;BME280;27371;42.686;23.362;2023-03-25T10:49:48;167730.22;;;21.17;30.92
41688;BME280;27371;42.686;23.362;2023-03-25T10:52:15;167728.88;;;21.16;31.19
41688;BME280;27371;42.686;23.362;2023-03-25T10:54:44;167736.94;;;21.19;31.77
41688;BME280;27371;42.686;23.362;2023-03-25T10:57:37;167724.88;;;21.15;31.27
41688;BME280;27371;42.686;23.362;2023-03-25T11:02:33;167616.03;;;20.73;32.06
41688;BME280;27371;42.686;23.362;2023-03-25T11:05:04;167472.19;;;20.18;32.95
41688;BME280;27371;42.686;23.362;2023-03-25T11:07:34;167383.50;;;19.85;34.26
41688;BME280;27371;42.686;23.362;2023-03-25T11:12:39;167495.03;;;20.27;34.34
41688;BME280;27371;42.686;23.362;2023-03-25T11:17:46;167625.41;;;20.77;33.18
41688;BME280;27371;42.686;23.362;2023-03-25T11:20:27;167653.63;;;20.87;33.13
41688;BME280;27371;42.686;23.362;2023-03-25T11:23:00;167664.38;;;20.91;33.40
41688;BME280;27371;42.686;23.362;2023-03-25T11:25:29;167681.88;;;20.98;33.34
41688;BME280;27371;42.686;23.362;2023-03-25T11:28:09;167710.09;;;21.09;33.25
41688;BME280;27371;42.686;23.362;2023-03-25T11:30:36;167692.59;;;21.02;33.11
41688;BME280;27371;42.686;23.362;2023-03-25T11:33:04;167735.59;;;21.19;33.26
41688;BME280;27371;42.686;23.362;2023-03-25T11:35:35;167778.63;;;21.35;33.18
41688;BME280;27371;42.686;23.362;2023-03-25T11:38:17;167794.78;;;21.41;32.54
41688;BME280;27371;42.686;23.362;2023-03-25T11:40:56;167828.41;;;21.54;32.47
41688;BME280;27371;42.686;23.362;2023-03-25T11:43:32;167845.88;;;21.61;31.95
41688;BME280;27371;42.686;23.362;2023-03-25T11:46:07;167863.38;;;21.67;31.80
41688;BME280;27371;42.686;23.362;2023-03-25T11:48:36;167859.31;;;21.66;31.83
41688;BME280;27371;42.686;23.362;2023-03-25T11:51:05;167879.50;;;21.73;30.76
41688;BME280;27371;42.686;23.362;2023-03-25T11:53:32;167876.84;;;21.72;30.73
41688;BME280;27371;42.686;23.362;2023-03-25T11:56:07;167906.41;;;21.84;30.78
41688;BME280;27371;42.686;23.362;2023-03-25T11:58:37;167930.59;;;21.93;30.41
41688;BME280;27371;42.686;23.362;2023-03-25T12:01:39;167960.16;;;22.04;30.10
41688;BME280;27371;42.686;23.362;2023-03-25T12:04:11;167991.06;;;22.16;29.76
41688;BME280;27371;42.686;23.362;2023-03-25T12:09:24;168046.28;;;22.37;30.20
41688;BME280;27371;42.686;23.362;2023-03-25T12:11:59;168043.63;;;22.36;30.11
41688;BME280;27371;42.686;23.362;2023-03-25T12:17:22;167996.53;;;22.18;30.09
41688;BME280;27371;42.686;23.362;2023-03-25T12:22:32;167843.19;;;21.60;30.42
41688;BME280;27371;42.686;23.362;2023-03-25T12:36:15;167633.47;;;20.80;31.79
41688;BME280;27371;42.686;23.362;2023-03-25T12:47:17;167652.31;;;20.87;31.25
41688;BME280;27371;42.686;23.362;2023-03-25T12:55:08;167665.69;;;20.92;31.44
41688;BME280;27371;42.686;23.362;2023-03-25T13:00:12;167675.13;;;20.96;31.55
41688;BME280;27371;42.686;23.362;2023-03-25T13:05:45;167654.97;;;20.88;31.45
41688;BME280;27371;42.686;23.362;2023-03-25T13:08:20;167637.47;;;20.81;31.50
41688;BME280;27371;42.686;23.362;2023-03-25T13:10:57;167642.84;;;20.83;31.37
41688;BME280;27371;42.686;23.362;2023-03-25T13:13:27;167644.19;;;20.84;31.58
41688;BME280;27371;42.686;23.362;2023-03-25T13:16:07;167626.75;;;20.77;31.54
41688;BME280;27371;42.686;23.362;2023-03-25T13:18:43;167613.31;;;20.72;31.50
41688;BME280;27371;42.686;23.362;2023-03-25T13:21:19;167613.31;;;20.72;31.52
41688;BME280;27371;42.686;23.362;2023-03-25T13:23:49;167611.97;;;20.72;31.63
41688;BME280;27371;42.686;23.362;2023-03-25T13:26:20;167594.53;;;20.65;31.96
41688;BME280;27371;42.686;23.362;2023-03-25T13:28:50;167568.97;;;20.55;32.20
41688;BME280;27371;42.686;23.362;2023-03-25T13:31:23;167538.03;;;20.43;33.04
41688;BME280;27371;42.686;23.362;2023-03-25T13:34:23;167500.41;;;20.29;33.89
41688;BME280;27371;42.686;23.362;2023-03-25T13:37:07;167447.97;;;20.09;34.12
41688;BME280;27371;42.686;23.362;2023-03-25T13:39:56;167280.03;;;19.45;34.83
41688;BME280;27371;42.686;23.362;2023-03-25T13:42:57;167156.50;;;18.98;36.07
41688;BME280;27371;42.686;23.362;2023-03-25T13:45:24;167126.97;;;18.87;35.42
41688;BME280;27371;42.686;23.362;2023-03-25T13:48:18;167110.88;;;18.81;35.78
41688;BME280;27371;42.686;23.362;2023-03-25T13:50:48;167122.94;;;18.85;36.80
41688;BME280;27371;42.686;23.362;2023-03-25T14:08:07;166929.63;;;18.12;43.84
41688;BME280;27371;42.686;23.362;2023-03-25T14:10:46;166857.16;;;17.84;45.37
41688;BME280;27371;42.686;23.362;2023-03-25T14:13:28;166800.75;;;17.63;46.22
41688;BME280;27371;42.686;23.362;2023-03-25T14:16:05;166751.13;;;17.44;45.95
41688;BME280;27371;42.686;23.362;2023-03-25T14:18:40;166745.72;;;17.42;46.86
41688;BME280;27371;42.686;23.362;2023-03-25T14:24:18;166718.94;;;17.31;48.99
41688;BME280;27371;42.686;23.362;2023-03-25T14:26:58;166686.72;;;17.19;49.62
41688;BME280;27371;42.686;23.362;2023-03-25T14:29:46;166676.00;;;17.15;51.59
41688;BME280;27371;42.686;23.362;2023-03-25T14:34:46;166610.28;;;16.90;53.01
41688;BME280;27371;42.686;23.362;2023-03-25T14:37:25;166547.19;;;16.66;54.91
41688;BME280;27371;42.686;23.362;2023-03-25T14:42:55;166466.75;;;16.35;57.97
41688;BME280;27371;42.686;23.362;2023-03-25T14:45:52;166425.19;;;16.19;59.26
41688;BME280;27371;42.686;23.362;2023-03-25T14:53:40;166272.31;;;15.61;61.83
41688;BME280;27371;42.686;23.362;2023-03-25T14:56:17;166244.19;;;15.50;62.90
41688;BME280;27371;42.686;23.362;2023-03-25T14:58:43;166210.66;;;15.37;63.28
41688;BME280;27371;42.686;23.362;2023-03-25T15:01:13;166174.47;;;15.24;64.72
41688;BME280;27371;42.686;23.362;2023-03-25T15:03:41;166159.75;;;15.18;66.71